createdAt,value
2022-11-08T00:01:59.772Z,15.69
2022-11-08T00:04:27.454Z,15.68
2022-11-08T00:07:17.507Z,15.63
2022-11-08T00:10:04.161Z,15.58
2022-11-08T00:12:50.481Z,15.60
2022-11-08T00:15:18.636Z,15.61
2022-11-08T00:17:46.546Z,15.68
2022-11-08T00:20:17.026Z,15.68
2022-11-08T00:22:44.736Z,15.61
2022-11-08T00:25:12.324Z,15.63
2022-11-08T00:27:39.732Z,15.63
2022-11-08T00:30:07.889Z,15.51
2022-11-08T00:32:35.747Z,15.59
2022-11-08T00:35:03.264Z,15.61
2022-11-08T00:37:30.608Z,15.62
2022-11-08T00:39:59.562Z,15.55
2022-11-08T00:42:27.136Z,15.48
2022-11-08T00:44:54.637Z,15.32
2022-11-08T00:47:24.411Z,15.20
2022-11-08T00:49:52.205Z,15.12
2022-11-08T00:52:20.273Z,15.21
2022-11-08T00:54:47.953Z,15.19
2022-11-08T00:57:15.633Z,15.16
2022-11-08T00:59:43.385Z,15.00
2022-11-08T01:02:11.379Z,15.04
2022-11-08T01:04:39.804Z,15.15
2022-11-08T01:07:07.151Z,15.16
2022-11-08T01:09:34.735Z,15.19
2022-11-08T01:12:02.410Z,15.01
2022-11-08T01:14:30.005Z,14.93
2022-11-08T01:16:57.843Z,14.92
2022-11-08T01:19:25.408Z,14.94
2022-11-08T01:21:54.005Z,14.92
2022-11-08T01:24:21.725Z,14.95
2022-11-08T01:26:52.156Z,15.02
2022-11-08T01:29:19.914Z,14.93
2022-11-08T01:31:49.129Z,14.93
2022-11-08T01:34:16.735Z,14.87
2022-11-08T01:36:44.212Z,14.73
2022-11-08T01:39:12.050Z,14.79
2022-11-08T01:41:39.960Z,14.80
2022-11-08T01:44:16.739Z,14.81
2022-11-08T01:46:46.773Z,14.82
2022-11-08T01:49:34.543Z,14.74
2022-11-08T01:52:18.136Z,14.81
2022-11-08T01:55:01.781Z,14.90
2022-11-08T01:57:48.800Z,14.74
2022-11-08T02:00:18.475Z,14.80
2022-11-08T02:02:52.080Z,14.80
2022-11-08T02:05:26.461Z,14.84
2022-11-08T02:08:03.584Z,14.78
2022-11-08T02:10:37.395Z,14.82
2022-11-08T02:13:13.362Z,14.79
2022-11-08T02:15:43.162Z,14.70
2022-11-08T02:18:15.644Z,14.67
2022-11-08T02:20:50.393Z,14.78
2022-11-08T02:23:28.829Z,14.76
2022-11-08T02:25:56.314Z,14.67
2022-11-08T02:28:23.946Z,14.70
2022-11-08T02:30:51.957Z,14.85
2022-11-08T02:33:23.170Z,14.82
2022-11-08T02:35:54.434Z,14.85
2022-11-08T02:38:24.492Z,14.81
2022-11-08T02:40:54.370Z,14.70
2022-11-08T02:43:23.813Z,14.64
2022-11-08T02:45:52.598Z,14.62
2022-11-08T02:48:20.880Z,14.67
2022-11-08T02:50:49.708Z,14.75
2022-11-08T02:53:18.004Z,14.70
2022-11-08T02:55:46.051Z,14.79
2022-11-08T02:58:14.246Z,14.77
2022-11-08T03:00:42.330Z,14.84
2022-11-08T03:03:10.039Z,14.87
2022-11-08T03:05:37.465Z,14.92
2022-11-08T03:08:05.484Z,14.87
2022-11-08T03:10:33.205Z,14.81
2022-11-08T03:13:07.359Z,14.84
2022-11-08T03:15:35.086Z,14.82
2022-11-08T03:18:03.485Z,14.76
2022-11-08T03:20:33.126Z,14.82
2022-11-08T03:23:04.377Z,14.81
2022-11-08T03:25:32.418Z,14.77
2022-11-08T03:28:08.098Z,14.82
2022-11-08T03:30:37.147Z,14.84
2022-11-08T03:33:10.189Z,14.84
2022-11-08T03:35:38.269Z,14.85
2022-11-08T03:38:05.829Z,14.86
2022-11-08T03:40:33.550Z,14.79
2022-11-08T03:43:01.963Z,14.77
2022-11-08T03:45:30.042Z,14.82
2022-11-08T03:47:57.721Z,14.89
2022-11-08T03:50:25.239Z,14.95
2022-11-08T03:52:55.257Z,14.93
2022-11-08T03:55:26.024Z,14.89
2022-11-08T03:57:54.411Z,14.86
2022-11-08T04:00:25.748Z,14.82
2022-11-08T04:02:55.747Z,14.91
2022-11-08T04:05:24.011Z,14.85
2022-11-08T04:07:51.797Z,14.82
2022-11-08T04:10:21.924Z,14.83
2022-11-08T04:13:07.827Z,14.88
2022-11-08T04:15:35.582Z,14.74
2022-11-08T04:18:22.133Z,14.81
2022-11-08T04:21:08.566Z,14.87
2022-11-08T04:23:37.781Z,14.83
2022-11-08T04:26:08.491Z,14.87
2022-11-08T04:28:38.120Z,14.81
2022-11-08T04:31:09.158Z,14.68
2022-11-08T04:33:36.904Z,14.76
2022-11-08T04:36:07.950Z,14.78
2022-11-08T04:38:35.917Z,14.70
2022-11-08T04:41:10.262Z,14.71
2022-11-08T04:43:38.435Z,14.74
2022-11-08T04:46:12.557Z,14.74
2022-11-08T04:48:40.934Z,14.76
2022-11-08T04:51:23.643Z,14.77
2022-11-08T04:53:51.692Z,14.75
2022-11-08T04:56:21.763Z,14.83
2022-11-08T04:58:51.992Z,14.82
2022-11-08T05:01:22.147Z,14.83
2022-11-08T05:03:51.732Z,14.86
2022-11-08T05:06:25.253Z,14.74
2022-11-08T05:08:54.085Z,14.78
2022-11-08T05:11:23.664Z,14.80
2022-11-08T05:13:52.345Z,14.72
2022-11-08T05:16:22.712Z,14.74
2022-11-08T05:18:50.438Z,14.70
2022-11-08T05:21:38.892Z,14.75
2022-11-08T05:24:08.280Z,14.76
2022-11-08T05:26:38.604Z,14.60
2022-11-08T05:29:07.001Z,14.68
2022-11-08T05:31:35.245Z,14.68
2022-11-08T05:34:03.526Z,14.74
2022-11-08T05:36:32.313Z,14.80
2022-11-08T05:39:00.566Z,14.86
2022-11-08T05:41:28.845Z,14.92
2022-11-08T05:43:56.796Z,14.94
2022-11-08T05:46:25.085Z,14.94
2022-11-08T05:48:53.050Z,14.97
2022-11-08T05:51:23.734Z,14.92
2022-11-08T05:53:55.250Z,15.01
2022-11-08T05:56:24.583Z,15.03
2022-11-08T05:58:53.861Z,15.03
2022-11-08T06:01:22.879Z,15.03
2022-11-08T06:03:51.253Z,15.01
2022-11-08T06:06:21.490Z,15.04
2022-11-08T06:08:52.851Z,15.02
2022-11-08T06:11:24.931Z,15.08
2022-11-08T06:13:53.462Z,15.06
2022-11-08T06:16:22.311Z,15.09
2022-11-08T06:18:49.930Z,15.13
2022-11-08T06:21:21.021Z,15.20
2022-11-08T06:23:49.181Z,15.14
2022-11-08T06:26:16.769Z,15.17
2022-11-08T06:28:44.349Z,15.10
2022-11-08T06:31:12.080Z,15.11
2022-11-08T06:33:40.452Z,15.11
2022-11-08T06:36:08.320Z,15.18
2022-11-08T06:38:36.253Z,15.17
2022-11-08T06:41:03.687Z,15.19
2022-11-08T06:43:32.410Z,15.21
2022-11-08T06:46:03.385Z,15.28
2022-11-08T06:48:35.557Z,15.24
2022-11-08T06:51:04.571Z,15.24
2022-11-08T06:53:32.548Z,15.30
2022-11-08T06:56:01.404Z,15.27
2022-11-08T06:58:31.984Z,15.25
2022-11-08T07:01:03.004Z,15.35
2022-11-08T07:03:31.693Z,15.60
2022-11-08T07:06:08.792Z,15.85
2022-11-08T07:08:37.007Z,16.04
2022-11-08T07:11:07.885Z,16.25
2022-11-08T07:13:37.067Z,16.30
2022-11-08T07:16:07.309Z,16.48
2022-11-08T07:18:35.822Z,16.44
2022-11-08T07:21:05.033Z,16.48
2022-11-08T07:23:32.999Z,16.43
2022-11-08T07:26:05.620Z,16.56
2022-11-08T07:28:34.990Z,16.62
2022-11-08T07:31:05.452Z,16.90
2022-11-08T07:33:34.551Z,17.04
2022-11-08T07:36:03.542Z,17.15
2022-11-08T07:38:32.054Z,17.16
2022-11-08T07:41:00.586Z,17.20
2022-11-08T07:43:30.390Z,17.13
2022-11-08T07:46:09.003Z,17.18
2022-11-08T07:48:38.539Z,17.24
2022-11-08T07:51:07.294Z,17.23
2022-11-08T07:53:35.364Z,17.19
2022-11-08T07:56:06.507Z,17.28
2022-11-08T07:58:35.252Z,17.26
2022-11-08T08:01:18.891Z,17.34
2022-11-08T08:03:58.430Z,17.27
2022-11-08T08:06:26.984Z,17.32
2022-11-08T08:08:56.319Z,17.28
2022-11-08T08:11:27.130Z,17.33
2022-11-08T08:13:57.776Z,17.38
2022-11-08T08:16:25.822Z,17.45
2022-11-08T08:18:56.617Z,17.46
2022-11-08T08:21:25.308Z,17.50
2022-11-08T08:23:53.470Z,17.51
2022-11-08T08:26:21.988Z,17.42
2022-11-08T08:28:49.829Z,17.44
2022-11-08T08:31:18.366Z,17.56
2022-11-08T08:33:50.599Z,17.59
2022-11-08T08:36:19.211Z,17.63
2022-11-08T08:38:46.842Z,17.57
2022-11-08T08:41:14.499Z,17.66
2022-11-08T08:43:42.611Z,17.82
2022-11-08T08:46:10.740Z,17.72
2022-11-08T08:48:39.466Z,17.84
2022-11-08T08:51:07.682Z,17.77
2022-11-08T08:53:36.945Z,17.83
2022-11-08T08:56:06.451Z,18.01
2022-11-08T08:58:34.630Z,18.01
2022-11-08T09:03:52.229Z,17.96
2022-11-08T09:06:20.744Z,17.91
2022-11-08T09:08:49.376Z,18.11
2022-11-08T09:11:19.761Z,18.07
2022-11-08T09:13:47.787Z,18.08
2022-11-08T09:16:15.848Z,18.07
2022-11-08T09:18:43.687Z,18.13
2022-11-08T09:21:11.333Z,18.28
2022-11-08T09:23:39.139Z,18.44
2022-11-08T09:26:07.280Z,18.49
2022-11-08T09:28:37.776Z,18.55
2022-11-08T09:31:10.103Z,18.62
2022-11-08T09:33:39.565Z,18.67
2022-11-08T09:36:10.057Z,18.62
2022-11-08T09:38:38.404Z,18.70
2022-11-08T09:41:06.314Z,18.69
2022-11-08T09:43:40.016Z,18.73
2022-11-08T09:46:12.549Z,18.67
2022-11-08T09:48:44.726Z,18.77
2022-11-08T09:51:23.692Z,18.76
2022-11-08T09:54:00.293Z,18.67
2022-11-08T09:56:35.065Z,18.79
2022-11-08T09:59:13.918Z,18.81
2022-11-08T10:01:43.210Z,18.83
2022-11-08T10:04:21.608Z,18.91
2022-11-08T10:07:14.456Z,19.06
2022-11-08T10:10:05.902Z,19.07
2022-11-08T10:13:05.661Z,19.10
2022-11-08T10:16:02.291Z,19.11
2022-11-08T10:18:36.620Z,19.21
2022-11-08T10:21:19.678Z,19.31
2022-11-08T10:24:02.536Z,19.44
2022-11-08T10:26:42.822Z,19.54
2022-11-08T10:29:27.700Z,19.57
2022-11-08T10:32:23.320Z,19.65
2022-11-08T10:34:55.065Z,19.67
2022-11-08T10:37:27.566Z,19.79
2022-11-08T10:40:02.476Z,19.87
2022-11-08T10:42:39.741Z,19.96
2022-11-08T10:45:10.160Z,20.05
2022-11-08T10:47:39.687Z,20.15
2022-11-08T10:50:25.778Z,20.23
2022-11-08T10:53:01.026Z,20.27
2022-11-08T10:55:39.365Z,20.30
2022-11-08T10:58:30.970Z,20.38
2022-11-08T11:01:18.600Z,20.40
2022-11-08T11:03:48.180Z,20.46
2022-11-08T11:06:30.309Z,20.52
2022-11-08T11:09:00.492Z,20.57
2022-11-08T11:11:37.508Z,20.66
2022-11-08T11:14:22.294Z,20.77
2022-11-08T11:16:58.617Z,20.91
2022-11-08T11:19:29.038Z,21.03
2022-11-08T11:22:08.775Z,21.12
2022-11-08T11:24:37.189Z,21.22
2022-11-08T11:27:21.882Z,21.33
2022-11-08T11:29:49.420Z,21.41
2022-11-08T11:32:34.666Z,21.52
2022-11-08T11:35:04.784Z,21.59
2022-11-08T11:37:43.596Z,21.53
2022-11-08T11:40:20.688Z,21.66
2022-11-08T11:43:06.813Z,21.76
2022-11-08T11:49:14.338Z,21.99
2022-11-08T11:51:41.880Z,21.99
2022-11-08T11:54:15.568Z,22.06
2022-11-08T11:56:55.864Z,22.16
2022-11-08T12:00:11.512Z,22.27
2022-11-08T12:03:01.700Z,22.29
2022-11-08T12:06:10.671Z,22.42
2022-11-08T12:08:52.996Z,22.50
2022-11-08T12:11:29.486Z,22.60
2022-11-08T12:14:09.049Z,22.68
2022-11-08T12:16:55.440Z,22.71
2022-11-08T12:19:44.274Z,22.78
2022-11-08T12:22:36.391Z,22.87
2022-11-08T12:25:54.687Z,22.94
2022-11-08T12:28:26.979Z,22.92
2022-11-08T12:31:03.762Z,22.92
2022-11-08T12:34:02.542Z,22.99
2022-11-08T12:37:07.662Z,22.96
2022-11-08T12:40:34.871Z,22.98
2022-11-08T12:43:30.076Z,22.94
2022-11-08T12:46:05.100Z,22.91
2022-11-08T12:49:05.745Z,22.94
2022-11-08T12:52:16.389Z,22.90
2022-11-08T12:54:54.894Z,22.92
2022-11-08T12:57:28.551Z,22.93
2022-11-08T13:00:03.281Z,22.96
2022-11-08T13:02:34.648Z,22.99
2022-11-08T13:05:17.372Z,23.05
2022-11-08T13:07:52.820Z,23.01
2022-11-08T13:10:39.378Z,23.00
2022-11-08T13:13:15.033Z,23.05
2022-11-08T13:16:16.840Z,23.10
2022-11-08T13:18:57.123Z,23.12
2022-11-08T13:21:30.802Z,23.20
2022-11-08T13:24:09.835Z,23.19
2022-11-08T13:26:43.545Z,23.23
2022-11-08T13:29:15.140Z,23.20
2022-11-08T13:32:19.934Z,23.23
2022-11-08T13:35:13.424Z,23.24
2022-11-08T13:37:56.871Z,23.26
2022-11-08T13:40:54.885Z,23.30
2022-11-08T13:43:31.855Z,23.27
2022-11-08T13:46:28.202Z,23.29
2022-11-08T13:49:05.800Z,23.22
2022-11-08T13:51:54.603Z,23.23
2022-11-08T13:54:22.559Z,23.18
2022-11-08T13:57:06.334Z,23.18
2022-11-08T13:59:34.074Z,23.16
2022-11-08T14:02:27.226Z,23.15
2022-11-08T14:05:12.562Z,23.12
2022-11-08T14:08:14.178Z,23.10
2022-11-08T14:11:20.953Z,23.04
2022-11-08T14:14:13.382Z,22.88
2022-11-08T14:16:53.590Z,22.78
2022-11-08T14:19:27.355Z,22.75
2022-11-08T14:22:10.793Z,22.73
2022-11-08T14:24:39.906Z,22.72
2022-11-08T14:27:07.705Z,22.66
2022-11-08T14:29:35.515Z,22.66
2022-11-08T14:32:08.201Z,22.67
2022-11-08T14:34:39.731Z,22.67
2022-11-08T14:37:26.835Z,22.65
2022-11-08T14:39:55.104Z,22.70
2022-11-08T14:42:25.625Z,22.69
2022-11-08T14:44:56.192Z,22.71
2022-11-08T14:47:30.642Z,22.74
2022-11-08T14:50:01.250Z,22.69
2022-11-08T14:52:31.323Z,22.71
2022-11-08T14:55:11.940Z,22.71
2022-11-08T14:57:46.290Z,22.67
2022-11-08T15:00:15.939Z,22.70
2022-11-08T15:02:51.488Z,22.70
2022-11-08T15:05:38.412Z,22.65
2022-11-08T15:08:18.271Z,22.60
2022-11-08T15:11:01.721Z,22.63
2022-11-08T15:13:33.088Z,22.64
2022-11-08T15:16:05.957Z,22.62
2022-11-08T15:18:40.938Z,22.59
2022-11-08T15:21:29.936Z,22.60
2022-11-08T15:24:16.180Z,22.53
2022-11-08T15:27:17.145Z,22.50
2022-11-08T15:30:02.439Z,22.51
2022-11-08T15:32:41.000Z,22.43
2022-11-08T15:35:21.355Z,22.41
2022-11-08T15:37:53.217Z,22.24
2022-11-08T15:40:24.830Z,22.22
2022-11-08T15:42:56.081Z,22.14
2022-11-08T15:45:36.202Z,22.03
2022-11-08T15:48:09.628Z,21.98
2022-11-08T15:50:41.023Z,21.93
2022-11-08T15:53:10.686Z,21.95
2022-11-08T15:55:42.277Z,21.94
2022-11-08T15:58:42.073Z,21.87
2022-11-08T16:01:22.565Z,21.83
2022-11-08T16:03:50.329Z,21.79
2022-11-08T16:06:18.605Z,21.76
2022-11-08T16:08:46.440Z,21.78
2022-11-08T16:11:20.771Z,21.74
2022-11-08T16:13:49.629Z,21.72
2022-11-08T16:16:18.429Z,21.69
2022-11-08T16:18:46.396Z,21.67
2022-11-08T16:21:15.078Z,21.62
2022-11-08T16:23:43.201Z,21.53
2022-11-08T16:26:18.516Z,21.50
2022-11-08T16:28:46.558Z,21.39
2022-11-08T16:31:16.565Z,21.40
2022-11-08T16:33:46.283Z,21.34
2022-11-08T16:36:23.667Z,21.24
2022-11-08T16:38:56.963Z,21.22
2022-11-08T16:41:37.632Z,21.20
2022-11-08T16:44:08.676Z,21.16
2022-11-08T16:46:36.937Z,21.12
2022-11-08T16:49:06.049Z,21.06
2022-11-08T16:51:34.328Z,21.03
2022-11-08T16:54:31.864Z,20.98
2022-11-08T16:57:28.510Z,20.92
2022-11-08T16:59:51.972Z,20.86
2022-11-08T17:02:31.015Z,20.84
2022-11-08T17:04:59.541Z,20.81
2022-11-08T17:07:30.147Z,20.80
2022-11-08T17:10:01.118Z,20.77
2022-11-08T17:12:29.777Z,20.73
2022-11-08T17:15:17.795Z,20.68
2022-11-08T17:17:46.664Z,20.67
2022-11-08T17:20:36.515Z,20.63
2022-11-08T17:23:04.237Z,20.61
2022-11-08T17:25:31.994Z,20.62
2022-11-08T17:28:01.243Z,20.57
2022-11-08T17:30:29.211Z,20.58
2022-11-08T17:32:57.088Z,20.56
2022-11-08T17:35:24.943Z,20.57
2022-11-08T17:37:53.881Z,20.55
2022-11-08T17:40:33.513Z,20.52
2022-11-08T17:43:01.690Z,20.51
2022-11-08T17:45:34.179Z,20.51
2022-11-08T17:48:26.810Z,20.49
2022-11-08T17:50:58.343Z,20.48
2022-11-08T17:53:26.517Z,20.48
2022-11-08T17:56:02.469Z,20.46
2022-11-08T17:58:33.947Z,20.45
2022-11-08T18:04:00.926Z,20.42
2022-11-08T18:06:31.599Z,20.45
2022-11-08T18:09:01.334Z,20.44
2022-11-08T18:11:38.003Z,20.41
2022-11-08T18:14:15.420Z,20.38
2022-11-08T18:16:49.760Z,20.37
2022-11-08T18:19:26.493Z,20.35
2022-11-08T18:21:54.283Z,20.34
2022-11-08T18:24:25.458Z,20.33
2022-11-08T18:26:56.601Z,20.30
2022-11-08T18:29:24.723Z,20.32
2022-11-08T18:31:52.980Z,20.30
2022-11-08T18:34:20.607Z,20.29
2022-11-08T18:36:50.855Z,20.30
2022-11-08T18:39:19.953Z,20.28
2022-11-08T18:41:52.008Z,20.26
2022-11-08T18:44:20.266Z,20.28
2022-11-08T18:46:48.264Z,20.28
2022-11-08T18:49:16.848Z,20.24
2022-11-08T18:51:44.761Z,20.24
2022-11-08T18:54:12.518Z,20.23
2022-11-08T18:56:40.657Z,20.20
2022-11-08T18:59:11.885Z,20.20
2022-11-08T19:01:40.052Z,20.20
2022-11-08T19:04:08.667Z,20.17
2022-11-08T19:06:40.580Z,20.17
2022-11-08T19:09:09.117Z,20.16
2022-11-08T19:11:42.003Z,20.15
2022-11-08T19:14:10.256Z,20.14
2022-11-08T19:16:42.375Z,20.13
2022-11-08T19:19:10.663Z,20.13
2022-11-08T19:21:47.975Z,20.11
2022-11-08T19:24:19.402Z,20.10
2022-11-08T19:26:47.804Z,20.08
2022-11-08T19:29:16.372Z,20.05
2022-11-08T19:31:46.162Z,20.03
2022-11-08T19:34:14.460Z,20.02
2022-11-08T19:36:45.427Z,19.99
2022-11-08T19:39:14.000Z,19.99
2022-11-08T19:41:42.478Z,19.98
2022-11-08T19:44:11.929Z,19.98
2022-11-08T19:46:45.558Z,19.98
2022-11-08T19:49:26.084Z,19.95
2022-11-08T19:51:54.911Z,19.95
2022-11-08T19:54:22.979Z,19.94
2022-11-08T19:57:04.831Z,19.83
2022-11-08T19:59:34.455Z,19.79
2022-11-08T20:02:03.503Z,19.78
2022-11-08T20:04:31.802Z,19.73
2022-11-08T20:06:59.635Z,19.73
2022-11-08T20:09:30.837Z,19.71
2022-11-08T20:11:59.001Z,19.66
2022-11-08T20:14:26.546Z,19.64
2022-11-08T20:16:55.927Z,19.52
2022-11-08T20:19:23.601Z,19.40
2022-11-08T20:21:51.704Z,19.39
2022-11-08T20:24:20.153Z,19.37
2022-11-08T20:26:50.994Z,19.27
2022-11-08T20:29:19.930Z,19.32
2022-11-08T20:31:53.096Z,19.29
2022-11-08T20:34:32.375Z,19.28
2022-11-08T20:37:01.132Z,19.18
2022-11-08T20:39:28.658Z,19.12
2022-11-08T20:41:56.633Z,19.12
2022-11-08T20:44:25.227Z,19.13
2022-11-08T20:46:53.083Z,19.12
2022-11-08T20:49:21.211Z,19.12
2022-11-08T20:51:48.715Z,19.07
2022-11-08T20:54:17.078Z,18.98
2022-11-08T20:56:44.751Z,18.97
2022-11-08T20:59:12.962Z,18.97
2022-11-08T21:01:43.233Z,18.80
2022-11-08T21:04:10.829Z,18.83
2022-11-08T21:06:41.895Z,18.79
2022-11-08T21:09:34.417Z,18.77
2022-11-08T21:12:13.859Z,18.76
2022-11-08T21:14:41.408Z,18.75
2022-11-08T21:17:21.800Z,18.74
2022-11-08T21:19:51.734Z,18.76
2022-11-08T21:22:19.665Z,18.68
2022-11-08T21:24:48.845Z,18.68
2022-11-08T21:27:17.236Z,18.71
2022-11-08T21:29:45.181Z,18.74
2022-11-08T21:32:12.878Z,18.74
2022-11-08T21:34:46.661Z,18.65
2022-11-08T21:37:23.698Z,18.57
2022-11-08T21:39:51.353Z,18.61
2022-11-08T21:42:19.017Z,18.62
2022-11-08T21:44:46.599Z,18.56
2022-11-08T21:47:14.351Z,18.53
2022-11-08T21:49:42.405Z,18.58
2022-11-08T21:52:10.400Z,18.44
2022-11-08T21:55:12.268Z,18.51
2022-11-08T21:57:43.866Z,18.47
2022-11-08T22:00:13.481Z,18.45
2022-11-08T22:02:41.942Z,18.38
2022-11-08T22:05:11.518Z,18.40
2022-11-08T22:07:39.721Z,18.34
2022-11-08T22:10:08.904Z,18.34
2022-11-08T22:12:45.261Z,18.37
2022-11-08T22:15:19.270Z,18.35
2022-11-08T22:18:14.284Z,18.37
2022-11-08T22:20:34.866Z,18.35
2022-11-08T22:23:08.671Z,18.32
2022-11-08T22:25:37.580Z,18.32
2022-11-08T22:28:10.227Z,18.24
2022-11-08T22:30:43.318Z,18.24
2022-11-08T22:33:11.976Z,18.22
2022-11-08T22:35:48.627Z,18.21
2022-11-08T22:38:20.251Z,18.26
2022-11-08T22:40:55.793Z,18.23
2022-11-08T22:43:29.323Z,18.24
2022-11-08T22:45:57.839Z,18.25
2022-11-08T22:48:26.618Z,18.26
2022-11-08T22:50:58.294Z,18.24
2022-11-08T22:53:26.690Z,18.26
2022-11-08T22:55:55.455Z,18.22
2022-11-08T22:58:24.447Z,18.20
2022-11-08T23:00:56.561Z,18.21
2022-11-08T23:03:31.877Z,18.19
2022-11-08T23:06:11.980Z,18.14
2022-11-08T23:08:40.773Z,18.16
2022-11-08T23:11:27.991Z,18.10
2022-11-08T23:14:15.261Z,18.06
2022-11-08T23:16:45.895Z,18.03
2022-11-08T23:19:39.310Z,17.93
2022-11-08T23:22:29.989Z,17.84
2022-11-08T23:24:58.188Z,17.83
2022-11-08T23:27:45.454Z,17.86
2022-11-08T23:30:34.912Z,17.84
2022-11-08T23:33:07.817Z,17.80
2022-11-08T23:35:38.197Z,17.76
2022-11-08T23:38:06.347Z,17.64
2022-11-08T23:40:52.870Z,17.69
2022-11-08T23:43:43.251Z,17.57
2022-11-08T23:46:15.403Z,17.53
2022-11-08T23:48:48.483Z,17.50
2022-11-08T23:51:15.733Z,17.47
2022-11-08T23:53:44.274Z,17.48
2022-11-08T23:56:20.738Z,17.52
2022-11-08T23:58:48.872Z,17.44
